Time;durP1;ratioP1;P1;durP2;ratioP2;P2;SDS_P1;SDS_P2;PMS_P1;PMS_P2;Temp;Humidity;BMP_temperature;BMP_pressure;BME280_temperature;BME280_humidity;BME280_pressure;Samples;Min_cycle;Max_cycle;Signal;HPM_P1;HPM_P2
2024/04/22 00:00:00;;;;;;;6.63;5.63;;;2.40;99.90;;;;;;6804574;26;20542;-58
2024/04/22 00:03:06;;;;;;;5.80;5.30;;;2.40;99.90;;;;;;6799845;26;20973;-57
2024/04/22 00:06:37;;;;;;;6.00;5.40;;;2.30;99.90;;;;;;6795798;26;20468;-58
2024/04/22 00:09:45;;;;;;;6.53;5.27;;;2.30;99.90;;;;;;6804807;26;20468;-58
2024/04/22 00:12:51;;;;;;;6.20;5.60;;;2.30;99.90;;;;;;6773480;26;20608;-58
2024/04/22 00:15:59;;;;;;;6.70;5.63;;;2.30;99.90;;;;;;6761084;26;20473;-58
2024/04/22 00:19:08;;;;;;;7.53;5.63;;;2.20;99.90;;;;;;6788506;26;21045;-57
2024/04/22 00:22:18;;;;;;;8.20;6.23;;;2.20;99.90;;;;;;6812637;26;20456;-58
2024/04/22 00:25:27;;;;;;;6.60;5.40;;;2.10;99.90;;;;;;6805617;26;20472;-58
2024/04/22 00:28:36;;;;;;;6.23;5.50;;;2.10;99.90;;;;;;6799844;26;20480;-58
2024/04/22 00:31:45;;;;;;;8.27;5.93;;;2.00;99.90;;;;;;6774943;26;21010;-58
2024/04/22 00:34:55;;;;;;;6.70;5.63;;;2.00;99.90;;;;;;6762366;26;21194;-58
2024/04/22 00:38:02;;;;;;;7.07;6.37;;;2.00;99.90;;;;;;6764660;26;20533;-58
2024/04/22 00:41:15;;;;;;;7.87;6.80;;;1.90;99.90;;;;;;6762879;26;20454;-58
2024/04/22 00:44:27;;;;;;;7.87;7.10;;;1.90;99.90;;;;;;6763294;26;20473;-57
2024/04/22 00:47:37;;;;;;;9.60;8.47;;;1.80;99.90;;;;;;6729056;26;20473;-57
2024/04/22 00:50:46;;;;;;;7.73;6.30;;;1.80;99.90;;;;;;6760873;26;20478;-58
2024/04/22 00:54:01;;;;;;;7.73;6.60;;;1.90;99.90;;;;;;6761010;26;20465;-57
2024/04/22 00:57:10;;;;;;;7.17;5.93;;;1.80;99.90;;;;;;6756170;26;20580;-57
2024/04/22 01:00:19;;;;;;;8.70;6.27;;;1.80;99.90;;;;;;6758509;26;20481;-58
2024/04/22 01:03:32;;;;;;;7.33;6.63;;;1.70;99.90;;;;;;6760371;26;21337;-58
2024/04/22 01:06:38;;;;;;;6.63;6.13;;;1.70;99.90;;;;;;6761512;26;20465;-58
2024/04/22 01:09:53;;;;;;;15.43;6.57;;;1.70;99.90;;;;;;6761775;26;20474;-58
2024/04/22 01:13:00;;;;;;;6.87;6.23;;;1.70;99.90;;;;;;6760606;26;20466;-59
2024/04/22 01:16:07;;;;;;;9.60;7.10;;;1.60;99.90;;;;;;6758746;26;20469;-58
2024/04/22 01:19:11;;;;;;;7.40;6.70;;;1.60;99.90;;;;;;6738343;26;20485;-58
2024/04/22 01:22:22;;;;;;;7.67;6.97;;;1.60;99.90;;;;;;6761092;26;20457;-58
2024/04/22 01:25:32;;;;;;;13.53;7.87;;;1.60;99.90;;;;;;6761646;26;20568;-59
2024/04/22 01:28:38;;;;;;;8.20;6.47;;;1.50;99.90;;;;;;6753076;26;20477;-57
2024/04/22 01:31:47;;;;;;;8.67;7.87;;;1.50;99.90;;;;;;6760938;26;20526;-57
2024/04/22 01:34:59;;;;;;;7.80;7.10;;;1.50;99.90;;;;;;6760569;26;20888;-58
2024/04/22 01:38:09;;;;;;;8.07;7.27;;;1.50;99.90;;;;;;6761968;26;20866;-58
2024/04/22 01:41:17;;;;;;;11.70;8.40;;;1.50;99.90;;;;;;6760550;26;20521;-58
2024/04/22 01:44:25;;;;;;;12.10;7.53;;;1.50;99.90;;;;;;6748863;26;20868;-58
2024/04/22 01:47:34;;;;;;;8.60;7.90;;;1.50;99.90;;;;;;6761019;26;20465;-58
2024/04/22 01:50:40;;;;;;;8.00;7.20;;;1.40;99.90;;;;;;6762573;26;20485;-58
2024/04/22 01:53:50;;;;;;;9.80;6.73;;;1.50;99.90;;;;;;6761988;26;20551;-58
2024/04/22 01:56:55;;;;;;;10.63;8.70;;;1.50;99.90;;;;;;6755915;26;20976;-58
2024/04/22 02:00:01;;;;;;;11.33;8.20;;;1.50;99.90;;;;;;6716992;26;20475;-58
2024/04/22 02:03:16;;;;;;;8.87;8.03;;;1.50;99.90;;;;;;6716655;26;20515;-58
2024/04/22 02:06:24;;;;;;;8.73;7.83;;;1.50;99.90;;;;;;6714736;26;20519;-58
2024/04/22 02:09:37;;;;;;;7.97;7.27;;;1.50;99.90;;;;;;6713614;26;20478;-58
2024/04/22 02:12:41;;;;;;;7.47;6.73;;;1.60;99.90;;;;;;6729764;26;20549;-58
2024/04/22 02:16:01;;;;;;;8.60;7.47;;;1.50;99.90;;;;;;6758638;26;20454;-57
2024/04/22 02:19:16;;;;;;;9.20;7.93;;;1.40;99.90;;;;;;6757578;26;20474;-58
2024/04/22 02:22:21;;;;;;;8.80;8.00;;;1.40;99.90;;;;;;6729183;26;20465;-58
2024/04/22 02:25:34;;;;;;;11.20;8.50;;;1.40;99.90;;;;;;6757597;26;20469;-58
2024/04/22 02:28:49;;;;;;;10.37;7.77;;;1.40;99.90;;;;;;6758213;26;20482;-58
2024/04/22 02:31:58;;;;;;;8.77;7.87;;;1.40;99.90;;;;;;6749662;26;20493;-60
2024/04/22 02:35:00;;;;;;;7.47;6.77;;;1.40;99.90;;;;;;6748452;26;20587;-59
2024/04/22 02:38:11;;;;;;;8.50;7.70;;;1.40;99.90;;;;;;6803231;26;20448;-60
2024/04/22 02:41:17;;;;;;;7.03;6.43;;;1.40;99.90;;;;;;6805678;26;20504;-61
2024/04/22 02:44:28;;;;;;;7.27;6.60;;;1.30;99.90;;;;;;6804690;26;20464;-59
2024/04/22 02:47:31;;;;;;;10.67;8.83;;;1.30;99.90;;;;;;6808958;26;20448;-59
2024/04/22 02:50:41;;;;;;;8.57;6.63;;;1.20;99.90;;;;;;6809520;26;21078;-60
2024/04/22 02:53:44;;;;;;;10.83;7.50;;;1.20;99.90;;;;;;6791950;26;20580;-60
2024/04/22 02:56:54;;;;;;;9.20;8.30;;;1.10;99.90;;;;;;6760724;26;20499;-60
2024/04/22 03:00:06;;;;;;;8.13;7.30;;;1.10;99.90;;;;;;6761345;26;21073;-60
2024/04/22 03:03:12;;;;;;;8.70;7.80;;;1.00;99.90;;;;;;6761422;26;20485;-59
2024/04/22 03:06:33;;;;;;;10.60;7.30;;;0.90;99.90;;;;;;6761767;26;20579;-60
2024/04/22 03:09:42;;;;;;;7.77;7.10;;;0.90;99.90;;;;;;6785154;26;20521;-61
2024/04/22 03:12:50;;;;;;;13.20;6.97;;;0.90;99.90;;;;;;6805296;26;20452;-61
2024/04/22 03:15:55;;;;;;;7.97;6.80;;;0.90;99.90;;;;;;6800513;26;20460;-60
2024/04/22 03:18:58;;;;;;;8.80;7.20;;;0.90;99.90;;;;;;6804085;26;20531;-60
2024/04/22 03:22:06;;;;;;;8.60;7.80;;;0.80;99.90;;;;;;6804732;26;20459;-60
2024/04/22 03:25:14;;;;;;;9.73;7.87;;;0.80;99.90;;;;;;6802357;26;20546;-60
2024/04/22 03:28:30;;;;;;;10.13;8.63;;;0.80;99.90;;;;;;6804967;26;20757;-59
2024/04/22 03:31:35;;;;;;;9.37;8.57;;;0.70;99.90;;;;;;6805027;26;20464;-59
2024/04/22 03:34:51;;;;;;;10.30;8.17;;;0.70;99.90;;;;;;6803023;26;20504;-60
2024/04/22 03:38:02;;;;;;;8.23;7.43;;;0.70;99.90;;;;;;6804143;26;20571;-59
2024/04/22 03:41:17;;;;;;;8.63;7.83;;;0.60;99.90;;;;;;6803585;26;20578;-59
2024/04/22 03:44:29;;;;;;;8.00;6.50;;;0.70;99.90;;;;;;6802363;26;20464;-59
2024/04/22 03:51:11;;;;;;;8.87;6.70;;;0.60;99.90;;;;;;6771146;26;20529;-60
2024/04/22 03:54:27;;;;;;;6.97;6.30;;;0.50;99.90;;;;;;6758866;26;20962;-61
2024/04/22 03:57:40;;;;;;;10.07;7.23;;;0.50;99.90;;;;;;6757548;26;20959;-60
2024/04/22 04:01:01;;;;;;;7.73;5.90;;;0.60;99.90;;;;;;6759486;26;20510;-60
2024/04/22 04:04:10;;;;;;;8.23;6.70;;;0.60;99.90;;;;;;6758027;26;20473;-60
2024/04/22 04:07:23;;;;;;;7.70;6.60;;;0.60;99.90;;;;;;6801596;26;20480;-61
2024/04/22 04:10:37;;;;;;;8.47;7.50;;;0.60;99.90;;;;;;6800738;26;20602;-62
2024/04/22 04:13:43;;;;;;;8.43;7.63;;;0.60;99.90;;;;;;6803697;26;21053;-60
2024/04/22 04:17:08;;;;;;;13.00;8.70;;;1.00;99.90;;;;;;6802596;26;20460;-60
2024/04/22 04:20:16;;;;;;;9.73;8.70;;;1.60;99.90;;;;;;6803326;26;20532;-61
2024/04/22 04:23:28;;;;;;;9.70;7.87;;;2.40;99.90;;;;;;6797303;26;20543;-61
2024/04/22 04:26:32;;;;;;;8.20;7.40;;;3.30;99.90;;;;;;6802743;26;20472;-61
2024/04/22 04:29:38;;;;;;;6.27;5.70;;;3.60;99.90;;;;;;6802282;26;20512;-61
2024/04/22 04:32:56;;;;;;;9.70;6.70;;;4.60;99.90;;;;;;6800892;26;20468;-60
2024/04/22 04:36:00;;;;;;;6.10;5.50;;;5.60;99.90;;;;;;6802499;25;20477;-60
2024/04/22 04:39:08;;;;;;;7.17;6.37;;;6.80;99.00;;;;;;6803297;26;20519;-60
2024/04/22 04:42:12;;;;;;;6.73;5.70;;;7.80;94.90;;;;;;6803111;26;20507;-60
2024/04/22 04:45:22;;;;;;;5.87;5.27;;;8.80;91.30;;;;;;6803249;26;20460;-61
2024/04/22 04:48:35;;;;;;;6.80;5.00;;;9.70;86.50;;;;;;6758001;26;20564;-61
2024/04/22 04:51:41;;;;;;;9.00;5.23;;;10.70;77.40;;;;;;6758782;26;20517;-62
2024/04/22 04:54:55;;;;;;;7.70;5.63;;;11.50;71.10;;;;;;6756768;26;20446;-61
2024/04/22 04:58:10;;;;;;;6.27;5.67;;;12.50;65.20;;;;;;6757702;26;20562;-61
2024/04/22 05:01:17;;;;;;;7.70;6.10;;;13.30;59.20;;;;;;6771349;26;20466;-61
2024/04/22 05:04:29;;;;;;;6.37;5.77;;;14.30;54.50;;;;;;6797487;26;21290;-60
2024/04/22 05:07:33;;;;;;;6.70;5.50;;;15.10;51.00;;;;;;6803487;26;20515;-61
2024/04/22 05:14:13;;;;;;;7.40;6.50;;;16.60;44.90;;;;;;6802745;26;20456;-61
2024/04/22 05:17:20;;;;;;;6.07;5.57;;;17.40;42.90;;;;;;6802744;26;21076;-62
2024/04/22 05:20:32;;;;;;;5.93;5.33;;;18.30;40.30;;;;;;6802285;26;20564;-61
2024/04/22 05:23:45;;;;;;;5.30;4.83;;;19.10;37.30;;;;;;6802425;26;20765;-62
2024/04/22 05:26:53;;;;;;;4.90;4.50;;;19.80;35.60;;;;;;6804148;26;20286;-61
2024/04/22 05:29:57;;;;;;;5.50;5.00;;;20.50;33.60;;;;;;6816591;25;20277;-61
2024/04/22 05:36:44;;;;;;;5.23;4.73;;;21.80;30.80;;;;;;6801823;25;21106;-61
2024/04/22 05:39:51;;;;;;;5.93;5.43;;;22.70;29.40;;;;;;6800234;26;20227;-61
2024/04/22 05:43:07;;;;;;;4.67;4.30;;;23.30;28.00;;;;;;6779543;26;20236;-61
2024/04/22 05:46:16;;;;;;;5.23;4.40;;;23.80;27.20;;;;;;6756762;26;20244;-61
2024/04/22 05:49:25;;;;;;;6.23;5.53;;;24.30;26.00;;;;;;6756955;26;20283;-61
2024/04/22 05:52:40;;;;;;;5.60;5.10;;;24.20;25.70;;;;;;6757539;26;20341;-62
2024/04/22 05:56:02;;;;;;;7.17;5.80;;;23.50;26.10;;;;;;6756297;26;20222;-61
2024/04/22 05:59:09;;;;;;;5.83;5.33;;;24.40;25.40;;;;;;6788930;26;20618;-61
2024/04/22 06:02:18;;;;;;;5.43;4.93;;;25.40;24.80;;;;;;6801157;26;20227;-61
2024/04/22 06:05:22;;;;;;;6.60;6.00;;;26.60;23.50;;;;;;6804710;26;21078;-62
2024/04/22 06:08:33;;;;;;;6.10;5.60;;;27.40;22.50;;;;;;6802351;26;20343;-61
2024/04/22 06:11:38;;;;;;;6.20;5.50;;;27.80;21.50;;;;;;6800800;26;20261;-62
2024/04/22 06:14:55;;;;;;;7.23;5.83;;;28.40;21.10;;;;;;6800901;26;20264;-61
2024/04/22 06:18:10;;;;;;;6.30;5.70;;;29.30;20.10;;;;;;6800760;26;20299;-62
2024/04/22 06:21:16;;;;;;;9.00;8.10;;;29.10;19.50;;;;;;6801394;26;20218;-63
2024/04/22 06:24:42;;;;;;;7.30;6.60;;;29.80;19.40;;;;;;6800584;26;20222;-63
2024/04/22 06:27:50;;;;;;;6.57;6.00;;;30.20;18.70;;;;;;6799642;26;20234;-62
2024/04/22 06:30:58;;;;;;;6.90;6.30;;;30.70;18.30;;;;;;6800613;26;20464;-61
2024/04/22 06:34:02;;;;;;;6.82;6.13;;;31.50;17.80;;;;;;6800714;26;20273;-62
2024/04/22 06:37:12;;;;;;;5.65;5.15;;;32.20;17.10;;;;;;6798865;26;20306;-63
2024/04/22 06:40:21;;;;;;;5.57;5.18;;;32.80;16.00;;;;;;6761760;26;20325;-62
2024/04/22 06:43:32;;;;;;;5.97;5.47;;;33.50;15.30;;;;;;6794948;26;20263;-62
2024/04/22 06:46:36;;;;;;;5.45;5.05;;;34.30;14.40;;;;;;6845234;25;20553;-62
2024/04/22 06:49:45;;;;;;;5.70;5.30;;;35.10;14.00;;;;;;6843345;26;20233;-62
2024/04/22 06:52:53;;;;;;;5.13;4.72;;;35.20;13.40;;;;;;6845083;25;20330;-64
2024/04/22 06:56:04;;;;;;;6.38;5.65;;;35.10;12.90;;;;;;6800747;25;20538;-62
2024/04/22 06:59:12;;;;;;;5.55;5.05;;;35.70;13.00;;;;;;6798951;26;20254;-62
2024/04/22 07:02:15;;;;;;;5.65;5.18;;;36.40;11.90;;;;;;6796836;26;20243;-62
2024/04/22 07:05:37;;;;;;;4.32;4.03;;;36.10;11.70;;;;;;6799630;26;20270;-61
2024/04/22 07:08:43;;;;;;;5.32;4.95;;;36.60;11.60;;;;;;6797846;26;20782;-62
2024/04/22 07:11:53;;;;;;;5.28;4.88;;;36.30;12.10;;;;;;6789154;26;20314;-61
2024/04/22 07:15:04;;;;;;;5.18;4.78;;;34.70;12.60;;;;;;6799766;26;20223;-61
2024/04/22 07:18:15;;;;;;;9.23;5.25;;;35.00;13.40;;;;;;6798852;26;20215;-61
2024/04/22 07:21:27;;;;;;;5.60;5.18;;;35.10;12.20;;;;;;6798904;26;20593;-61
2024/04/22 07:24:32;;;;;;;5.00;4.60;;;36.20;12.20;;;;;;6800110;26;20286;-61
2024/04/22 07:27:46;;;;;;;5.43;5.03;;;36.80;12.40;;;;;;6794529;26;20276;-62
2024/04/22 07:30:51;;;;;;;5.15;4.78;;;35.80;11.90;;;;;;6766438;26;20301;-61
2024/04/22 07:34:00;;;;;;;5.20;4.78;;;35.50;12.70;;;;;;6801479;26;20269;-61
2024/04/22 07:37:17;;;;;;;5.75;5.25;;;32.60;13.70;;;;;;6768094;26;20230;-62
2024/04/22 07:40:28;;;;;;;5.13;4.72;;;30.70;14.20;;;;;;6793123;26;20799;-61
2024/04/22 07:43:38;;;;;;;6.25;5.82;;;29.80;16.30;;;;;;6797746;26;20277;-62
2024/04/22 07:46:53;;;;;;;5.47;5.07;;;31.90;14.60;;;;;;6803932;26;20230;-61
2024/04/22 07:49:57;;;;;;;5.30;4.72;;;32.80;14.40;;;;;;6796979;26;20271;-61
2024/04/22 07:53:04;;;;;;;5.10;4.70;;;33.00;13.60;;;;;;6789891;26;20806;-62
2024/04/22 07:56:21;;;;;;;5.40;4.95;;;33.80;13.90;;;;;;6791606;26;20230;-62
2024/04/22 07:59:38;;;;;;;5.25;4.85;;;36.00;12.00;;;;;;6787627;26;21051;-61
2024/04/22 08:02:45;;;;;;;4.90;4.50;;;35.40;11.70;;;;;;6765556;26;20239;-64
2024/04/22 08:05:49;;;;;;;4.95;4.55;;;35.50;11.30;;;;;;6803011;26;20964;-64
2024/04/22 08:09:00;;;;;;;4.38;4.05;;;35.20;11.90;;;;;;6798095;26;20289;-64
2024/04/22 08:12:09;;;;;;;4.40;4.10;;;35.70;10.70;;;;;;6802760;26;20246;-64
2024/04/22 08:15:35;;;;;;;4.20;3.80;;;36.60;10.70;;;;;;6802106;26;20809;-63
2024/04/22 08:18:39;;;;;;;3.90;3.60;;;37.50;9.90;;;;;;6802938;26;20302;-64
2024/04/22 08:21:55;;;;;;;4.50;4.20;;;38.30;10.10;;;;;;6796302;26;20708;-64
2024/04/22 08:25:04;;;;;;;5.35;3.92;;;38.60;9.20;;;;;;6803417;26;20269;-63
2024/04/22 08:28:11;;;;;;;3.67;3.38;;;38.10;9.20;;;;;;6803181;26;20700;-64
2024/04/22 08:31:17;;;;;;;4.40;4.00;;;38.70;9.30;;;;;;6796421;26;20296;-64
2024/04/22 08:34:33;;;;;;;3.58;3.28;;;40.20;8.70;;;;;;6791168;26;20239;-64
2024/04/22 08:37:37;;;;;;;4.45;4.05;;;40.60;8.30;;;;;;6800505;26;20281;-63
2024/04/22 08:40:45;;;;;;;3.85;3.55;;;41.10;8.50;;;;;;6803881;26;20241;-64
2024/04/22 08:43:49;;;;;;;4.00;3.70;;;39.30;8.30;;;;;;6793298;26;20818;-63
2024/04/22 08:47:04;;;;;;;4.25;3.95;;;34.80;9.80;;;;;;6800210;26;20747;-63
2024/04/22 08:50:07;;;;;;;5.63;4.00;;;35.70;10.00;;;;;;6803203;26;20583;-63
2024/04/22 08:53:16;;;;;;;4.82;4.53;;;37.90;9.20;;;;;;6801483;26;20238;-66
2024/04/22 08:56:26;;;;;;;4.60;4.20;;;35.90;9.20;;;;;;6794298;26;20230;-62
2024/04/22 08:59:40;;;;;;;4.53;4.22;;;35.70;10.30;;;;;;6800720;26;20607;-63
2024/04/22 09:02:57;;;;;;;5.43;4.47;;;34.30;10.80;;;;;;6787268;26;20231;-64
2024/04/22 09:06:05;;;;;;;4.82;4.43;;;32.90;11.00;;;;;;6801831;26;20330;-64
2024/04/22 09:09:18;;;;;;;4.63;4.28;;;33.30;11.40;;;;;;6800325;26;20545;-62
2024/04/22 09:12:41;;;;;;;5.55;5.15;;;31.90;12.40;;;;;;6801813;26;20222;-63
2024/04/22 09:15:55;;;;;;;5.28;4.88;;;29.40;14.30;;;;;;6800347;26;20242;-63
2024/04/22 09:19:12;;;;;;;4.70;4.30;;;27.60;15.50;;;;;;6803039;26;21034;-63
2024/04/22 09:22:16;;;;;;;4.50;4.20;;;25.70;16.60;;;;;;6802854;26;20284;-64
2024/04/22 09:25:22;;;;;;;5.03;4.63;;;25.30;17.00;;;;;;6801773;26;20275;-64
2024/04/22 09:28:27;;;;;;;4.80;4.30;;;25.20;17.60;;;;;;6784257;26;20261;-63
2024/04/22 09:31:42;;;;;;;5.73;5.23;;;25.90;17.80;;;;;;6784384;26;20250;-62
2024/04/22 09:34:59;;;;;;;4.93;4.57;;;28.10;16.40;;;;;;6801180;26;20681;-63
2024/04/22 09:38:04;;;;;;;5.07;4.77;;;28.40;14.90;;;;;;6800365;26;21104;-64
2024/04/22 09:41:21;;;;;;;5.47;4.87;;;28.90;14.70;;;;;;6797839;26;20419;-64
2024/04/22 09:44:30;;;;;;;5.10;4.78;;;29.50;14.00;;;;;;6801554;26;20227;-63
2024/04/22 09:47:39;;;;;;;4.47;4.18;;;30.00;13.20;;;;;;6797798;26;20277;-63
2024/04/22 09:50:48;;;;;;;6.10;4.55;;;31.50;12.80;;;;;;6801672;26;20257;-64
2024/04/22 09:53:57;;;;;;;4.43;4.13;;;32.50;11.40;;;;;;6800208;26;20301;-64
2024/04/22 09:57:08;;;;;;;4.07;3.78;;;33.90;11.00;;;;;;6801345;26;20535;-64
2024/04/22 10:00:16;;;;;;;4.78;4.47;;;34.20;10.30;;;;;;6800396;26;20235;-63
2024/04/22 10:03:21;;;;;;;4.78;4.47;;;33.90;10.30;;;;;;6800672;26;20800;-65
2024/04/22 10:06:37;;;;;;;5.20;4.70;;;33.90;10.20;;;;;;6797248;26;20234;-63
2024/04/22 10:09:43;;;;;;;4.85;4.55;;;32.30;10.70;;;;;;6799685;26;20597;-63
2024/04/22 10:12:56;;;;;;;4.78;4.45;;;32.10;11.00;;;;;;6800636;26;21138;-65
2024/04/22 10:16:06;;;;;;;4.32;3.92;;;31.80;11.20;;;;;;6800882;26;20615;-63
2024/04/22 10:19:12;;;;;;;5.10;4.70;;;31.90;11.00;;;;;;6800374;26;20230;-64
2024/04/22 10:22:32;;;;;;;4.55;4.25;;;31.50;10.90;;;;;;6786424;26;20709;-62
2024/04/22 10:25:40;;;;;;;4.45;3.58;;;33.90;10.40;;;;;;6796468;26;20227;-63
2024/04/22 10:28:46;;;;;;;4.13;3.83;;;32.80;10.50;;;;;;6773725;26;20239;-62
2024/04/22 10:32:00;;;;;;;4.37;4.07;;;30.00;11.40;;;;;;6752453;26;20241;-63
2024/04/22 10:35:10;;;;;;;4.28;3.97;;;26.20;14.80;;;;;;6754519;26;20220;-63
2024/04/22 10:38:23;;;;;;;4.53;4.22;;;29.80;12.80;;;;;;6755219;26;20602;-62
2024/04/22 10:41:31;;;;;;;3.90;3.67;;;30.50;12.00;;;;;;6799560;26;20250;-63
2024/04/22 10:44:38;;;;;;;4.50;4.13;;;31.90;11.60;;;;;;6800408;26;20286;-62
2024/04/22 10:47:58;;;;;;;3.85;3.55;;;32.00;10.90;;;;;;6799693;26;20326;-61
2024/04/22 10:51:21;;;;;;;4.72;4.05;;;31.80;11.20;;;;;;6800209;26;20606;-63
2024/04/22 10:54:30;;;;;;;4.30;4.00;;;33.20;10.70;;;;;;6800041;26;20242;-62
2024/04/22 10:57:45;;;;;;;4.50;4.10;;;30.10;11.60;;;;;;6800072;26;20639;-63
2024/04/22 11:00:51;;;;;;;4.18;3.78;;;29.10;13.00;;;;;;6805722;26;20227;-62
2024/04/22 11:04:11;;;;;;;3.90;3.60;;;30.60;12.70;;;;;;6804594;26;20885;-62
2024/04/22 11:07:19;;;;;;;5.55;3.85;;;31.80;12.10;;;;;;6786885;26;20335;-63
2024/04/22 11:10:32;;;;;;;3.20;3.00;;;31.90;11.40;;;;;;6803974;26;20250;-64
2024/04/22 11:13:48;;;;;;;3.90;3.60;;;30.50;11.40;;;;;;6804435;26;20833;-63
2024/04/22 11:16:58;;;;;;;3.90;3.40;;;27.00;13.80;;;;;;6803101;26;20640;-62
2024/04/22 11:20:11;;;;;;;5.57;3.87;;;26.30;14.70;;;;;;6789029;26;20239;-63
2024/04/22 11:23:20;;;;;;;3.77;3.47;;;23.50;16.50;;;;;;6757479;26;20308;-62
2024/04/22 11:26:31;;;;;;;3.23;3.03;;;23.50;17.10;;;;;;6757057;26;20224;-62
2024/04/22 11:29:47;;;;;;;3.90;3.60;;;23.80;16.90;;;;;;6757922;26;20938;-63
2024/04/22 11:32:49;;;;;;;3.10;2.90;;;24.00;16.60;;;;;;6758084;26;20965;-63
2024/04/22 11:36:08;;;;;;;3.17;2.87;;;22.40;16.80;;;;;;6779035;25;20261;-62
2024/04/22 11:39:22;;;;;;;3.33;3.03;;;22.60;17.30;;;;;;6803564;26;20277;-63
2024/04/22 11:42:35;;;;;;;4.07;3.03;;;23.80;17.00;;;;;;6803477;26;20242;-62
2024/04/22 11:45:41;;;;;;;3.20;2.90;;;23.60;16.70;;;;;;6803247;26;20234;-63
2024/04/22 11:48:51;;;;;;;3.00;2.80;;;24.10;16.40;;;;;;6800122;26;20392;-62
2024/04/22 11:51:59;;;;;;;4.97;3.60;;;24.00;16.50;;;;;;6787800;26;20347;-63
2024/04/22 11:55:02;;;;;;;3.47;3.17;;;24.30;16.60;;;;;;6763554;26;20227;-63
2024/04/22 11:58:25;;;;;;;3.07;2.87;;;24.30;16.30;;;;;;6773358;26;20270;-64
2024/04/22 12:01:30;;;;;;;3.27;3.07;;;22.70;17.70;;;;;;6801309;26;20226;-63
2024/04/22 12:04:37;;;;;;;3.70;3.40;;;21.50;18.50;;;;;;6776558;26;20896;-63
2024/04/22 12:07:42;;;;;;;3.37;3.07;;;20.90;19.40;;;;;;6795277;26;20265;-63
2024/04/22 12:10:47;;;;;;;2.87;2.67;;;20.60;20.00;;;;;;6755751;26;20724;-64
2024/04/22 12:14:01;;;;;;;3.13;2.93;;;20.50;20.50;;;;;;6804199;26;20730;-63
2024/04/22 12:17:07;;;;;;;3.27;2.97;;;19.70;21.00;;;;;;6802629;26;20938;-63
2024/04/22 12:20:15;;;;;;;3.10;2.90;;;18.20;22.80;;;;;;6801201;26;20759;-64
2024/04/22 12:23:26;;;;;;;6.20;3.37;;;17.30;23.60;;;;;;6791635;25;20492;-63
2024/04/22 12:26:41;;;;;;;3.10;2.20;;;17.20;23.60;;;;;;6786975;26;20239;-63
2024/04/22 12:29:50;;;;;;;2.63;2.43;;;17.20;24.20;;;;;;6805014;26;20360;-61
2024/04/22 12:33:01;;;;;;;2.87;2.50;;;16.70;24.20;;;;;;6774644;26;20259;-61
2024/04/22 12:36:08;;;;;;;2.63;2.43;;;15.50;26.00;;;;;;6783508;26;20544;-61
2024/04/22 12:39:16;;;;;;;3.10;2.80;;;15.60;26.40;;;;;;6769220;26;20608;-61
2024/04/22 12:42:29;;;;;;;2.57;2.37;;;15.80;26.20;;;;;;6806329;26;20586;-62
2024/04/22 12:45:39;;;;;;;3.20;3.00;;;13.80;27.10;;;;;;6787145;26;20467;-63
2024/04/22 12:52:12;;;;;;;2.70;2.50;;;12.90;29.20;;;;;;6798635;26;20444;-63
2024/04/22 12:55:20;;;;;;;2.97;2.77;;;12.80;29.30;;;;;;6772516;26;20830;-61
2024/04/22 12:58:30;;;;;;;2.90;2.70;;;12.50;30.10;;;;;;6793164;26;21008;-63
2024/04/22 13:01:40;;;;;;;5.10;3.23;;;13.00;30.10;;;;;;6798917;26;20973;-64
2024/04/22 13:04:46;;;;;;;2.50;2.27;;;13.70;29.40;;;;;;6799421;26;20518;-62
2024/04/22 13:07:54;;;;;;;2.50;2.30;;;14.60;29.10;;;;;;6756043;26;20587;-64
2024/04/22 13:11:03;;;;;;;2.83;2.37;;;15.00;27.90;;;;;;6800329;26;20484;-62
2024/04/22 13:14:13;;;;;;;3.00;2.67;;;15.30;28.40;;;;;;6767120;26;20538;-63
2024/04/22 13:17:26;;;;;;;3.57;2.47;;;15.50;27.10;;;;;;6765754;26;20522;-61
2024/04/22 13:20:35;;;;;;;2.93;2.50;;;14.70;28.40;;;;;;6801523;26;20533;-62
2024/04/22 13:23:39;;;;;;;3.10;2.60;;;14.10;29.20;;;;;;6770157;26;20460;-61
2024/04/22 13:26:46;;;;;;;3.40;2.67;;;13.60;29.80;;;;;;6798659;26;20467;-64
2024/04/22 13:29:49;;;;;;;3.40;3.07;;;13.80;29.40;;;;;;6797825;26;20558;-63
2024/04/22 13:33:03;;;;;;;3.07;2.87;;;14.00;29.00;;;;;;6794982;26;20475;-62
2024/04/22 13:36:08;;;;;;;2.90;2.70;;;14.00;29.30;;;;;;6802393;26;20637;-60
2024/04/22 13:39:19;;;;;;;2.53;2.33;;;14.30;29.30;;;;;;6795324;26;20523;-64
2024/04/22 13:42:24;;;;;;;2.80;2.60;;;14.30;29.30;;;;;;6782668;26;20535;-62
2024/04/22 13:45:42;;;;;;;3.10;2.90;;;14.00;29.60;;;;;;6797400;26;20540;-62
2024/04/22 13:49:04;;;;;;;2.67;2.47;;;12.90;31.60;;;;;;6797673;26;20555;-63
2024/04/22 13:52:22;;;;;;;2.70;2.50;;;12.90;32.10;;;;;;6781441;26;20702;-61
2024/04/22 13:55:31;;;;;;;3.10;2.90;;;12.80;32.40;;;;;;6794650;26;20505;-64
2024/04/22 13:58:37;;;;;;;4.20;2.67;;;12.70;32.40;;;;;;6794213;26;20480;-63
2024/04/22 14:01:42;;;;;;;3.13;2.93;;;12.90;32.50;;;;;;6798868;26;20508;-62
2024/04/22 14:04:53;;;;;;;2.73;2.53;;;13.00;32.00;;;;;;6800074;26;20504;-63
2024/04/22 14:07:56;;;;;;;3.27;2.97;;;13.30;31.90;;;;;;6794994;26;20536;-61
2024/04/22 14:11:05;;;;;;;2.70;2.50;;;13.70;31.70;;;;;;6751041;26;21174;-63
2024/04/22 14:14:11;;;;;;;2.90;2.70;;;13.40;31.60;;;;;;6752669;26;21022;-64
2024/04/22 14:17:22;;;;;;;4.17;3.10;;;12.50;32.10;;;;;;6751453;26;20497;-63
2024/04/22 14:20:33;;;;;;;2.93;2.73;;;12.20;33.10;;;;;;6752374;26;20501;-63
2024/04/22 14:23:40;;;;;;;3.07;2.80;;;11.70;35.10;;;;;;6758269;26;20778;-61
2024/04/22 14:26:50;;;;;;;3.40;2.90;;;11.60;35.30;;;;;;6797804;26;20483;-64
2024/04/22 14:29:58;;;;;;;4.00;3.30;;;11.70;35.20;;;;;;6794881;26;21122;-63
2024/04/22 14:33:02;;;;;;;3.40;2.60;;;11.70;35.50;;;;;;6796668;26;20628;-61
2024/04/22 14:36:23;;;;;;;2.93;2.73;;;11.80;34.80;;;;;;6801121;26;20479;-63
2024/04/22 14:39:32;;;;;;;3.27;2.97;;;11.50;35.20;;;;;;6798939;26;20988;-61
2024/04/22 14:42:40;;;;;;;3.10;2.90;;;11.50;35.90;;;;;;6797167;26;21366;-63
2024/04/22 14:45:44;;;;;;;3.23;2.93;;;11.70;35.30;;;;;;6802397;26;20557;-63
2024/04/22 14:49:00;;;;;;;3.30;3.10;;;11.90;35.40;;;;;;6757051;26;21069;-62
2024/04/22 14:52:12;;;;;;;6.10;2.87;;;12.20;35.20;;;;;;6756498;26;20498;-62
2024/04/22 14:55:28;;;;;;;3.90;3.60;;;11.50;37.10;;;;;;6757484;26;20449;-62
2024/04/22 14:58:34;;;;;;;4.23;3.13;;;11.60;37.60;;;;;;6766077;26;20467;-62
2024/04/22 15:01:45;;;;;;;3.77;3.47;;;10.80;38.70;;;;;;6802870;26;20532;-62
2024/04/22 15:04:49;;;;;;;3.10;2.90;;;10.50;40.40;;;;;;6789267;26;20528;-63
2024/04/22 15:08:00;;;;;;;4.40;4.10;;;10.70;39.90;;;;;;6750119;26;20473;-63
2024/04/22 15:11:12;;;;;;;5.80;5.20;;;11.10;39.90;;;;;;6771967;26;20479;-63
2024/04/22 15:14:19;;;;;;;4.17;3.87;;;11.30;38.90;;;;;;6796404;26;21127;-62
2024/04/22 15:17:36;;;;;;;4.30;3.90;;;11.60;38.20;;;;;;6778416;26;20477;-63
2024/04/22 15:20:41;;;;;;;4.80;4.30;;;11.70;38.50;;;;;;6799532;26;20949;-62
2024/04/22 15:24:04;;;;;;;4.93;4.53;;;11.10;39.70;;;;;;6800448;26;20543;-63
2024/04/22 15:27:07;;;;;;;5.07;4.57;;;10.90;41.30;;;;;;6801927;26;20664;-61
2024/04/22 15:30:15;;;;;;;4.90;4.50;;;11.00;41.00;;;;;;6801957;26;20479;-63
2024/04/22 15:33:24;;;;;;;4.80;4.30;;;10.70;41.20;;;;;;6802297;26;20574;-64
2024/04/22 15:36:34;;;;;;;5.00;4.50;;;10.20;42.60;;;;;;6799366;26;20539;-63
2024/04/22 15:39:44;;;;;;;6.70;6.10;;;10.10;43.70;;;;;;6802453;26;20566;-62
2024/04/22 15:42:57;;;;;;;5.63;5.20;;;10.40;43.80;;;;;;6801372;26;20464;-63
2024/04/22 15:46:11;;;;;;;5.30;4.90;;;10.30;44.00;;;;;;6801233;26;20543;-62
2024/04/22 15:49:19;;;;;;;5.83;5.30;;;10.20;44.20;;;;;;6801781;26;20460;-61
2024/04/22 15:52:25;;;;;;;5.53;5.00;;;10.30;43.70;;;;;;6802140;26;20826;-61
2024/04/22 15:55:34;;;;;;;5.33;4.93;;;10.20;44.10;;;;;;6795157;26;20467;-60
2024/04/22 15:58:40;;;;;;;6.37;5.77;;;10.20;44.20;;;;;;6802577;26;20468;-61
2024/04/22 16:01:47;;;;;;;5.83;5.43;;;10.20;44.20;;;;;;6779754;26;20481;-60
2024/04/22 16:04:51;;;;;;;6.10;5.60;;;10.20;44.90;;;;;;6801634;26;20472;-60
2024/04/22 16:08:01;;;;;;;7.60;5.80;;;10.40;44.20;;;;;;6801016;26;20503;-61
2024/04/22 16:11:08;;;;;;;5.43;4.93;;;10.20;43.70;;;;;;6801204;26;20516;-61
2024/04/22 16:14:14;;;;;;;7.10;6.40;;;10.20;45.10;;;;;;6782938;26;20469;-60
2024/04/22 16:17:21;;;;;;;6.93;5.70;;;10.00;44.40;;;;;;6791176;26;21076;-61
2024/04/22 16:20:35;;;;;;;6.30;5.30;;;9.70;45.30;;;;;;6800656;26;20578;-59
2024/04/22 16:23:45;;;;;;;5.73;5.23;;;9.40;48.30;;;;;;6772863;26;21190;-59
2024/04/22 16:27:06;;;;;;;6.07;5.57;;;9.40;46.80;;;;;;6793373;26;20480;-59
2024/04/22 16:30:20;;;;;;;8.80;6.17;;;9.40;46.50;;;;;;6791257;26;20543;-58
2024/04/22 16:33:30;;;;;;;5.57;5.07;;;9.50;46.60;;;;;;6785955;26;20456;-58
2024/04/22 16:36:34;;;;;;;7.60;5.57;;;9.60;47.20;;;;;;6799767;26;20464;-58
2024/04/22 16:39:43;;;;;;;6.00;5.43;;;9.30;46.20;;;;;;6788989;26;20574;-58
2024/04/22 16:42:51;;;;;;;5.70;5.17;;;9.30;46.80;;;;;;6793006;26;20569;-59
2024/04/22 16:46:14;;;;;;;5.90;5.40;;;9.20;47.20;;;;;;6800153;26;20996;-58